This demonstration page uses our WeatherBlox Daily Observations layout. Learn more.

36.17497, -115.13722

Hourly Observations for May 2, 2015

Temp ( °F °C ) Dew Point ( °F °C ) Humidity (%) Winds ( mph kmh ) Pressure ( in mb ) Visibility ( mi km ) Precip ( " mm )
12:53 am 00:53 Clear 73 22.8 25 -3.9 17 17 NNW 7 11 29.82 1010 10 16.0934 0 0
1:53 am 01:53 Clear 76 24.4 24 -4.4 14 14 W 6 9 29.8 1009 10 16.0934 0 0
2:53 am 02:53 Clear 74 23.3 26 -3.3 17 17 W 3 6 29.8 1009 10 16.0934 0 0
3:53 am 03:53 Clear 74 23.3 25 -3.9 16 16 Calm 29.8 1009 10 16.0934 0 0
4:53 am 04:53 Clear 70 21.1 24 -4.4 18 18 N 7 11 29.82 1010 10 16.0934 0 0
5:53 am 05:53 Sunny 69 20.6 25 -3.9 19 19 NW 7 11 29.83 1010 10 16.0934 0 0
6:53 am 06:53 Sunny 70 21.1 27 -2.8 20 20 N 5 7 29.84 1011 10 16.0934 0 0
7:53 am 07:53 Sunny 74 23.3 27 -2.8 17 17 N 5 7 29.85 1011 10 16.0934 0 0
8:53 am 08:53 Sunny 79 26.1 24 -4.4 13 13 Calm 29.85 1011 10 16.0934 0 0
9:53 am 09:53 Sunny 81 27.2 24 -4.4 12 12 SSE 5 7 29.85 1011 10 16.0934 0 0
10:53 am 10:53 Sunny 86 30 24 -4.4 10 10 SSE 7 11 29.83 1010 10 16.0934 0 0
11:53 am 11:53 Sunny 88 31.1 23 -5 9 9 ESE 10 17 29.81 1010 10 16.0934 0 0
12:53 pm 12:53 Sunny 93 33.9 20 -6.7 7 7 S 21 33 29.77 1008 10 16.0934 0 0
1:53 pm 13:53 Sunny 91 32.8 20 -6.7 7 7 SW 10 17 29.75 1008 10 16.0934 0 0
2:53 pm 14:53 Sunny 89 31.7 23 -5 9 9 S 16 26 29.73 1007 10 16.0934 0 0
3:53 pm 15:53 Sunny 91 32.8 21 -6.1 8 8 SSW 10 17 29.71 1006 10 16.0934 0 0
4:53 pm 16:53 Sunny 90 32.2 19 -7.2 7 7 SW 13 20 29.7 1006 10 16.0934 0 0
5:53 pm 17:53 Sunny 91 32.8 20 -6.7 7 7 WSW 17 28 29.69 1005 10 16.0934 0 0
6:53 pm 18:53 Sunny 89 31.7 20 -6.7 8 8 SSW 8 13 29.69 1005 10 16.0934 0 0
7:53 pm 19:53 Clear 86 30 22 -5.6 9 9 WSW 10 17 29.7 1006 10 16.0934 0 0
8:53 pm 20:53 Clear 84 28.9 23 -5 10 10 WSW 6 9 29.72 1006 10 16.0934 0 0
9:53 pm 21:53 Clear 82 27.8 24 -4.4 12 12 SW 3 6 29.73 1007 10 16.0934 0 0
10:53 pm 22:53 Clear 79 26.1 26 -3.3 14 14 SSW 9 15 29.73 1007 10 16.0934 0 0
11:53 pm 23:53 Clear 77 25 25 -3.9 14 14 WSW 3 6 29.74 1007 10 16.0934 0 0

Powered by AerisWeather